sensor_id;sensor_type;location;lat;lon;timestamp;temperature;humidity
2657;DHT22;1338;48.176;11.792;2024-02-26T00:01:59;2.90;99.90
2657;DHT22;1338;48.176;11.792;2024-02-26T00:04:27;2.60;99.90
2657;DHT22;1338;48.176;11.792;2024-02-26T00:06:55;2.60;99.90
2657;DHT22;1338;48.176;11.792;2024-02-26T00:09:25;2.60;99.90
2657;DHT22;1338;48.176;11.792;2024-02-26T00:11:53;2.60;99.90
2657;DHT22;1338;48.176;11.792;2024-02-26T00:14:22;2.50;99.90
2657;DHT22;1338;48.176;11.792;2024-02-26T00:16:50;2.40;99.90
2657;DHT22;1338;48.176;11.792;2024-02-26T00:19:20;2.50;99.90
2657;DHT22;1338;48.176;11.792;2024-02-26T00:21:49;2.40;99.90
2657;DHT22;1338;48.176;11.792;2024-02-26T00:24:18;2.70;99.90
2657;DHT22;1338;48.176;11.792;2024-02-26T00:26:46;2.90;99.90
2657;DHT22;1338;48.176;11.792;2024-02-26T00:29:20;2.90;99.90
2657;DHT22;1338;48.176;11.792;2024-02-26T00:31:48;2.60;62.00
2657;DHT22;1338;48.176;11.792;2024-02-26T00:34:17;2.50;58.20
2657;DHT22;1338;48.176;11.792;2024-02-26T00:36:47;2.20;45.00
2657;DHT22;1338;48.176;11.792;2024-02-26T00:39:15;2.00;57.00
2657;DHT22;1338;48.176;11.792;2024-02-26T00:41:44;1.80;83.30
2657;DHT22;1338;48.176;11.792;2024-02-26T00:44:12;1.40;99.90
2657;DHT22;1338;48.176;11.792;2024-02-26T00:46:40;0.90;99.90
2657;DHT22;1338;48.176;11.792;2024-02-26T00:49:08;0.90;99.90
2657;DHT22;1338;48.176;11.792;2024-02-26T00:51:37;0.80;1.00
2657;DHT22;1338;48.176;11.792;2024-02-26T00:54:07;0.70;1.00
2657;DHT22;1338;48.176;11.792;2024-02-26T00:56:35;0.50;1.00
2657;DHT22;1338;48.176;11.792;2024-02-26T00:59:04;0.60;1.00
2657;DHT22;1338;48.176;11.792;2024-02-26T01:01:33;0.50;1.00
2657;DHT22;1338;48.176;11.792;2024-02-26T01:04:02;0.40;1.00
2657;DHT22;1338;48.176;11.792;2024-02-26T01:06:31;0.20;1.00
2657;DHT22;1338;48.176;11.792;2024-02-26T01:08:59;0.20;1.00
2657;DHT22;1338;48.176;11.792;2024-02-26T01:11:29;0.50;1.00
2657;DHT22;1338;48.176;11.792;2024-02-26T01:13:58;0.50;1.00
2657;DHT22;1338;48.176;11.792;2024-02-26T01:16:26;0.50;1.00
2657;DHT22;1338;48.176;11.792;2024-02-26T01:18:56;0.40;1.00
2657;DHT22;1338;48.176;11.792;2024-02-26T01:21:24;0.10;1.00
2657;DHT22;1338;48.176;11.792;2024-02-26T01:23:54;-0.10;1.00
2657;DHT22;1338;48.176;11.792;2024-02-26T01:26:22;-0.10;1.00
2657;DHT22;1338;48.176;11.792;2024-02-26T01:28:52;0.10;1.00
2657;DHT22;1338;48.176;11.792;2024-02-26T01:31:21;0.10;1.00
2657;DHT22;1338;48.176;11.792;2024-02-26T01:33:50;0.00;1.00
2657;DHT22;1338;48.176;11.792;2024-02-26T01:36:18;0.00;1.00
2657;DHT22;1338;48.176;11.792;2024-02-26T01:38:47;0.20;1.00
2657;DHT22;1338;48.176;11.792;2024-02-26T01:41:15;0.50;1.00
2657;DHT22;1338;48.176;11.792;2024-02-26T01:43:43;0.30;1.00
2657;DHT22;1338;48.176;11.792;2024-02-26T01:46:14;0.00;1.00
2657;DHT22;1338;48.176;11.792;2024-02-26T01:48:46;-0.10;1.00
2657;DHT22;1338;48.176;11.792;2024-02-26T01:51:17;-0.10;1.00
2657;DHT22;1338;48.176;11.792;2024-02-26T01:53:46;-0.20;1.00
2657;DHT22;1338;48.176;11.792;2024-02-26T01:56:15;-0.20;1.00
2657;DHT22;1338;48.176;11.792;2024-02-26T01:58:45;-0.20;1.00
2657;DHT22;1338;48.176;11.792;2024-02-26T02:01:16;-0.20;1.00
2657;DHT22;1338;48.176;11.792;2024-02-26T02:03:46;-0.10;1.00
2657;DHT22;1338;48.176;11.792;2024-02-26T02:06:15;-0.10;1.00
2657;DHT22;1338;48.176;11.792;2024-02-26T02:08:44;-0.20;1.00
2657;DHT22;1338;48.176;11.792;2024-02-26T02:11:13;-0.20;1.00
2657;DHT22;1338;48.176;11.792;2024-02-26T02:13:41;-0.20;1.00
2657;DHT22;1338;48.176;11.792;2024-02-26T02:16:10;0.00;1.00
2657;DHT22;1338;48.176;11.792;2024-02-26T02:18:40;0.20;1.00
2657;DHT22;1338;48.176;11.792;2024-02-26T02:21:09;-0.10;1.00
2657;DHT22;1338;48.176;11.792;2024-02-26T02:23:38;0.00;1.00
2657;DHT22;1338;48.176;11.792;2024-02-26T02:26:07;0.00;1.00
2657;DHT22;1338;48.176;11.792;2024-02-26T02:28:36;-0.10;1.00
2657;DHT22;1338;48.176;11.792;2024-02-26T02:31:04;0.00;1.00
2657;DHT22;1338;48.176;11.792;2024-02-26T02:33:33;-0.10;1.00
2657;DHT22;1338;48.176;11.792;2024-02-26T02:36:01;-0.10;1.00
2657;DHT22;1338;48.176;11.792;2024-02-26T02:38:31;-0.10;1.00
2657;DHT22;1338;48.176;11.792;2024-02-26T02:41:00;-0.10;1.00
2657;DHT22;1338;48.176;11.792;2024-02-26T02:43:28;-0.20;1.00
2657;DHT22;1338;48.176;11.792;2024-02-26T02:45:57;-0.30;1.00
2657;DHT22;1338;48.176;11.792;2024-02-26T02:48:25;-0.20;1.00
2657;DHT22;1338;48.176;11.792;2024-02-26T02:50:56;-0.40;1.00
2657;DHT22;1338;48.176;11.792;2024-02-26T02:53:24;-0.60;1.00
2657;DHT22;1338;48.176;11.792;2024-02-26T02:55:54;-0.50;1.00
2657;DHT22;1338;48.176;11.792;2024-02-26T02:58:22;-0.40;24.10
2657;DHT22;1338;48.176;11.792;2024-02-26T03:00:50;-0.40;1.00
2657;DHT22;1338;48.176;11.792;2024-02-26T03:03:19;-0.40;1.00
2657;DHT22;1338;48.176;11.792;2024-02-26T03:05:47;-0.40;1.00
2657;DHT22;1338;48.176;11.792;2024-02-26T03:08:15;-0.40;1.00
2657;DHT22;1338;48.176;11.792;2024-02-26T03:10:43;-0.40;1.00
2657;DHT22;1338;48.176;11.792;2024-02-26T03:13:13;-0.30;1.00
2657;DHT22;1338;48.176;11.792;2024-02-26T03:15:42;-0.90;1.00
2657;DHT22;1338;48.176;11.792;2024-02-26T03:18:11;-1.20;1.00
2657;DHT22;1338;48.176;11.792;2024-02-26T03:20:39;-1.00;24.60
2657;DHT22;1338;48.176;11.792;2024-02-26T03:23:07;-1.00;39.90
2657;DHT22;1338;48.176;11.792;2024-02-26T03:25:39;-0.90;99.90
2657;DHT22;1338;48.176;11.792;2024-02-26T03:28:08;-0.90;15.10
2657;DHT22;1338;48.176;11.792;2024-02-26T03:30:38;-0.90;1.00
2657;DHT22;1338;48.176;11.792;2024-02-26T03:33:06;-0.40;97.20
2657;DHT22;1338;48.176;11.792;2024-02-26T03:35:34;-0.20;1.00
2657;DHT22;1338;48.176;11.792;2024-02-26T03:38:03;0.20;1.00
2657;DHT22;1338;48.176;11.792;2024-02-26T03:40:31;0.30;1.00
2657;DHT22;1338;48.176;11.792;2024-02-26T03:43:00;0.40;1.00
2657;DHT22;1338;48.176;11.792;2024-02-26T03:45:29;0.40;1.00
2657;DHT22;1338;48.176;11.792;2024-02-26T03:47:59;0.50;1.00
2657;DHT22;1338;48.176;11.792;2024-02-26T03:50:28;0.50;1.00
2657;DHT22;1338;48.176;11.792;2024-02-26T03:52:56;0.40;1.00
2657;DHT22;1338;48.176;11.792;2024-02-26T03:55:24;0.50;99.90
2657;DHT22;1338;48.176;11.792;2024-02-26T03:57:53;0.50;99.90
2657;DHT22;1338;48.176;11.792;2024-02-26T04:00:21;0.20;99.90
2657;DHT22;1338;48.176;11.792;2024-02-26T04:02:50;0.10;99.90
2657;DHT22;1338;48.176;11.792;2024-02-26T04:05:20;0.20;99.90
2657;DHT22;1338;48.176;11.792;2024-02-26T04:07:49;0.30;99.90
2657;DHT22;1338;48.176;11.792;2024-02-26T04:10:17;0.40;99.90
2657;DHT22;1338;48.176;11.792;2024-02-26T04:12:45;0.50;99.90
2657;DHT22;1338;48.176;11.792;2024-02-26T04:15:14;0.50;99.90
2657;DHT22;1338;48.176;11.792;2024-02-26T04:17:42;0.70;99.90
2657;DHT22;1338;48.176;11.792;2024-02-26T04:20:14;0.80;99.90
2657;DHT22;1338;48.176;11.792;2024-02-26T04:22:45;0.80;99.90
2657;DHT22;1338;48.176;11.792;2024-02-26T04:25:13;0.70;99.90
2657;DHT22;1338;48.176;11.792;2024-02-26T04:27:42;0.60;99.90
2657;DHT22;1338;48.176;11.792;2024-02-26T04:30:11;0.70;99.90
2657;DHT22;1338;48.176;11.792;2024-02-26T04:32:39;0.60;99.90
2657;DHT22;1338;48.176;11.792;2024-02-26T04:35:08;0.70;99.90
2657;DHT22;1338;48.176;11.792;2024-02-26T04:37:37;0.70;99.90
2657;DHT22;1338;48.176;11.792;2024-02-26T04:40:08;0.70;99.90
2657;DHT22;1338;48.176;11.792;2024-02-26T04:42:36;0.50;99.90
2657;DHT22;1338;48.176;11.792;2024-02-26T04:45:05;0.10;99.90
2657;DHT22;1338;48.176;11.792;2024-02-26T04:47:34;-0.20;99.90
2657;DHT22;1338;48.176;11.792;2024-02-26T04:50:02;-0.50;99.90
2657;DHT22;1338;48.176;11.792;2024-02-26T04:52:31;-0.60;99.90
2657;DHT22;1338;48.176;11.792;2024-02-26T04:54:59;-0.70;1.00
2657;DHT22;1338;48.176;11.792;2024-02-26T04:57:29;-0.80;1.00
2657;DHT22;1338;48.176;11.792;2024-02-26T04:59:57;-0.80;1.00
2657;DHT22;1338;48.176;11.792;2024-02-26T05:02:27;-0.60;1.00
2657;DHT22;1338;48.176;11.792;2024-02-26T05:04:57;-0.30;1.00
2657;DHT22;1338;48.176;11.792;2024-02-26T05:07:25;-0.40;1.00
2657;DHT22;1338;48.176;11.792;2024-02-26T05:09:53;-0.30;1.00
2657;DHT22;1338;48.176;11.792;2024-02-26T05:12:22;-0.30;1.00
2657;DHT22;1338;48.176;11.792;2024-02-26T05:14:52;-0.30;1.00
2657;DHT22;1338;48.176;11.792;2024-02-26T05:17:20;-0.30;1.00
2657;DHT22;1338;48.176;11.792;2024-02-26T05:19:52;-0.30;1.00
2657;DHT22;1338;48.176;11.792;2024-02-26T05:22:20;0.30;1.00
2657;DHT22;1338;48.176;11.792;2024-02-26T05:24:49;0.10;1.00
2657;DHT22;1338;48.176;11.792;2024-02-26T05:27:18;0.10;1.00
2657;DHT22;1338;48.176;11.792;2024-02-26T05:29:47;0.10;1.00
2657;DHT22;1338;48.176;11.792;2024-02-26T05:32:16;0.20;1.00
2657;DHT22;1338;48.176;11.792;2024-02-26T05:34:44;0.10;99.90
2657;DHT22;1338;48.176;11.792;2024-02-26T05:37:13;-0.10;99.90
2657;DHT22;1338;48.176;11.792;2024-02-26T05:39:41;-0.20;99.90
2657;DHT22;1338;48.176;11.792;2024-02-26T05:42:09;-0.30;99.90
2657;DHT22;1338;48.176;11.792;2024-02-26T05:44:38;-0.60;99.90
2657;DHT22;1338;48.176;11.792;2024-02-26T05:47:06;-0.50;1.00
2657;DHT22;1338;48.176;11.792;2024-02-26T05:49:35;-0.70;1.00
2657;DHT22;1338;48.176;11.792;2024-02-26T05:52:05;-0.70;1.00
2657;DHT22;1338;48.176;11.792;2024-02-26T05:54:33;-0.80;1.00
2657;DHT22;1338;48.176;11.792;2024-02-26T05:57:02;0.30;99.90
2657;DHT22;1338;48.176;11.792;2024-02-26T05:59:30;3.70;1.00
2657;DHT22;1338;48.176;11.792;2024-02-26T06:01:59;0.60;1.00
2657;DHT22;1338;48.176;11.792;2024-02-26T06:04:27;-0.50;99.90
2657;DHT22;1338;48.176;11.792;2024-02-26T06:06:57;-0.90;99.90
2657;DHT22;1338;48.176;11.792;2024-02-26T06:09:26;-1.00;99.90
2657;DHT22;1338;48.176;11.792;2024-02-26T06:11:54;-0.80;99.90
2657;DHT22;1338;48.176;11.792;2024-02-26T06:14:22;-0.80;24.80
2657;DHT22;1338;48.176;11.792;2024-02-26T06:16:51;-0.90;1.00
2657;DHT22;1338;48.176;11.792;2024-02-26T06:19:19;1.20;96.20
2657;DHT22;1338;48.176;11.792;2024-02-26T06:21:48;0.10;99.90
2657;DHT22;1338;48.176;11.792;2024-02-26T06:24:18;-0.10;1.00
2657;DHT22;1338;48.176;11.792;2024-02-26T06:26:48;-0.30;1.00
2657;DHT22;1338;48.176;11.792;2024-02-26T06:29:16;-0.10;1.00
2657;DHT22;1338;48.176;11.792;2024-02-26T06:31:44;-0.20;1.00
2657;DHT22;1338;48.176;11.792;2024-02-26T06:34:14;-0.10;1.00
2657;DHT22;1338;48.176;11.792;2024-02-26T06:36:44;0.10;1.00
2657;DHT22;1338;48.176;11.792;2024-02-26T06:39:12;0.30;1.00
2657;DHT22;1338;48.176;11.792;2024-02-26T06:41:43;0.20;1.00
2657;DHT22;1338;48.176;11.792;2024-02-26T06:44:13;0.60;1.00
2657;DHT22;1338;48.176;11.792;2024-02-26T06:46:42;0.40;1.00
2657;DHT22;1338;48.176;11.792;2024-02-26T06:49:11;0.70;1.00
2657;DHT22;1338;48.176;11.792;2024-02-26T06:51:39;0.70;1.00
2657;DHT22;1338;48.176;11.792;2024-02-26T06:54:08;0.60;1.00
2657;DHT22;1338;48.176;11.792;2024-02-26T06:56:36;0.50;1.00
2657;DHT22;1338;48.176;11.792;2024-02-26T06:59:06;0.60;1.00
2657;DHT22;1338;48.176;11.792;2024-02-26T07:01:35;0.80;1.00
2657;DHT22;1338;48.176;11.792;2024-02-26T07:04:06;0.80;1.00
2657;DHT22;1338;48.176;11.792;2024-02-26T07:06:34;1.00;1.00
2657;DHT22;1338;48.176;11.792;2024-02-26T07:09:03;1.30;1.00
2657;DHT22;1338;48.176;11.792;2024-02-26T07:11:31;1.20;99.90
2657;DHT22;1338;48.176;11.792;2024-02-26T07:14:00;1.30;99.90
2657;DHT22;1338;48.176;11.792;2024-02-26T07:16:30;1.50;99.90
2657;DHT22;1338;48.176;11.792;2024-02-26T07:18:58;1.60;99.90
2657;DHT22;1338;48.176;11.792;2024-02-26T07:21:27;1.40;99.90
2657;DHT22;1338;48.176;11.792;2024-02-26T07:23:56;1.20;99.90
2657;DHT22;1338;48.176;11.792;2024-02-26T07:26:24;1.20;99.90
2657;DHT22;1338;48.176;11.792;2024-02-26T07:28:53;1.50;99.90
2657;DHT22;1338;48.176;11.792;2024-02-26T07:31:21;1.50;99.90
2657;DHT22;1338;48.176;11.792;2024-02-26T07:33:51;1.60;99.90
2657;DHT22;1338;48.176;11.792;2024-02-26T07:36:19;1.70;99.90
2657;DHT22;1338;48.176;11.792;2024-02-26T07:38:48;1.90;99.90
2657;DHT22;1338;48.176;11.792;2024-02-26T07:41:16;2.10;99.90
2657;DHT22;1338;48.176;11.792;2024-02-26T07:43:45;2.20;99.90
2657;DHT22;1338;48.176;11.792;2024-02-26T07:46:13;2.40;99.90
2657;DHT22;1338;48.176;11.792;2024-02-26T07:48:41;2.50;99.90
2657;DHT22;1338;48.176;11.792;2024-02-26T07:51:13;2.50;99.90
2657;DHT22;1338;48.176;11.792;2024-02-26T07:53:42;2.50;99.90
2657;DHT22;1338;48.176;11.792;2024-02-26T07:56:10;2.60;97.20
2657;DHT22;1338;48.176;11.792;2024-02-26T07:58:38;2.70;92.40
2657;DHT22;1338;48.176;11.792;2024-02-26T08:01:07;2.90;85.10
2657;DHT22;1338;48.176;11.792;2024-02-26T08:03:37;3.10;95.10
2657;DHT22;1338;48.176;11.792;2024-02-26T08:06:07;3.10;99.90
2657;DHT22;1338;48.176;11.792;2024-02-26T08:08:37;3.40;99.90
2657;DHT22;1338;48.176;11.792;2024-02-26T08:11:05;3.70;42.30
2657;DHT22;1338;48.176;11.792;2024-02-26T08:13:34;3.90;22.20
2657;DHT22;1338;48.176;11.792;2024-02-26T08:16:05;4.10;1.00
2657;DHT22;1338;48.176;11.792;2024-02-26T08:18:33;4.20;1.00
2657;DHT22;1338;48.176;11.792;2024-02-26T08:21:02;4.30;1.00
2657;DHT22;1338;48.176;11.792;2024-02-26T08:23:31;4.50;1.00
2657;DHT22;1338;48.176;11.792;2024-02-26T08:26:01;4.10;1.00
2657;DHT22;1338;48.176;11.792;2024-02-26T08:28:31;3.80;12.60
2657;DHT22;1338;48.176;11.792;2024-02-26T08:30:59;4.00;8.00
2657;DHT22;1338;48.176;11.792;2024-02-26T08:33:28;4.30;25.40
2657;DHT22;1338;48.176;11.792;2024-02-26T08:35:57;4.50;1.00
2657;DHT22;1338;48.176;11.792;2024-02-26T08:38:26;4.80;1.00
2657;DHT22;1338;48.176;11.792;2024-02-26T08:40:55;4.80;1.00
2657;DHT22;1338;48.176;11.792;2024-02-26T08:43:24;4.80;1.00
2657;DHT22;1338;48.176;11.792;2024-02-26T08:45:53;4.80;1.00
2657;DHT22;1338;48.176;11.792;2024-02-26T08:48:21;4.90;1.00
2657;DHT22;1338;48.176;11.792;2024-02-26T08:50:49;5.30;1.00
2657;DHT22;1338;48.176;11.792;2024-02-26T08:53:18;5.60;1.00
2657;DHT22;1338;48.176;11.792;2024-02-26T08:55:57;5.80;1.00
2657;DHT22;1338;48.176;11.792;2024-02-26T08:58:27;5.70;1.00
2657;DHT22;1338;48.176;11.792;2024-02-26T09:00:55;5.90;1.00
2657;DHT22;1338;48.176;11.792;2024-02-26T09:03:24;6.00;1.00
2657;DHT22;1338;48.176;11.792;2024-02-26T09:05:53;6.10;1.00
2657;DHT22;1338;48.176;11.792;2024-02-26T09:08:21;6.50;1.00
2657;DHT22;1338;48.176;11.792;2024-02-26T09:10:50;6.90;1.00
2657;DHT22;1338;48.176;11.792;2024-02-26T09:13:18;7.00;1.00
2657;DHT22;1338;48.176;11.792;2024-02-26T09:15:48;6.90;1.00
2657;DHT22;1338;48.176;11.792;2024-02-26T09:18:16;6.60;1.00
2657;DHT22;1338;48.176;11.792;2024-02-26T09:20:45;7.00;1.00
2657;DHT22;1338;48.176;11.792;2024-02-26T09:23:13;6.70;1.00
2657;DHT22;1338;48.176;11.792;2024-02-26T09:25:41;7.10;1.00
2657;DHT22;1338;48.176;11.792;2024-02-26T09:28:10;6.50;1.00
2657;DHT22;1338;48.176;11.792;2024-02-26T09:30:38;6.50;1.00
2657;DHT22;1338;48.176;11.792;2024-02-26T09:33:08;6.40;1.00
2657;DHT22;1338;48.176;11.792;2024-02-26T09:35:36;6.20;1.00
2657;DHT22;1338;48.176;11.792;2024-02-26T09:38:04;6.50;1.00
2657;DHT22;1338;48.176;11.792;2024-02-26T09:40:36;6.50;1.00
2657;DHT22;1338;48.176;11.792;2024-02-26T09:43:05;6.70;1.00
2657;DHT22;1338;48.176;11.792;2024-02-26T09:45:34;6.80;1.00
2657;DHT22;1338;48.176;11.792;2024-02-26T09:48:05;6.70;1.00
2657;DHT22;1338;48.176;11.792;2024-02-26T09:50:36;6.60;1.00
2657;DHT22;1338;48.176;11.792;2024-02-26T09:53:05;6.60;1.00
2657;DHT22;1338;48.176;11.792;2024-02-26T09:55:37;6.80;1.00
2657;DHT22;1338;48.176;11.792;2024-02-26T09:58:05;7.10;1.00
2657;DHT22;1338;48.176;11.792;2024-02-26T10:00:37;7.40;1.00
2657;DHT22;1338;48.176;11.792;2024-02-26T10:03:10;6.80;1.00
2657;DHT22;1338;48.176;11.792;2024-02-26T10:05:44;7.20;1.00
2657;DHT22;1338;48.176;11.792;2024-02-26T10:08:13;7.90;1.00
2657;DHT22;1338;48.176;11.792;2024-02-26T10:10:42;8.10;1.00
2657;DHT22;1338;48.176;11.792;2024-02-26T10:13:10;8.10;1.00
2657;DHT22;1338;48.176;11.792;2024-02-26T10:15:38;7.90;1.00
2657;DHT22;1338;48.176;11.792;2024-02-26T10:18:07;7.80;1.00
2657;DHT22;1338;48.176;11.792;2024-02-26T10:20:36;7.90;1.00
2657;DHT22;1338;48.176;11.792;2024-02-26T10:23:05;8.00;1.00
2657;DHT22;1338;48.176;11.792;2024-02-26T10:25:34;7.70;1.00
2657;DHT22;1338;48.176;11.792;2024-02-26T10:28:03;7.80;1.00
2657;DHT22;1338;48.176;11.792;2024-02-26T10:30:31;7.50;1.00
2657;DHT22;1338;48.176;11.792;2024-02-26T10:33:00;7.60;1.00
2657;DHT22;1338;48.176;11.792;2024-02-26T10:35:30;7.50;1.00
2657;DHT22;1338;48.176;11.792;2024-02-26T10:38:00;7.70;1.00
2657;DHT22;1338;48.176;11.792;2024-02-26T10:40:30;8.20;1.00
2657;DHT22;1338;48.176;11.792;2024-02-26T10:42:58;8.40;1.00
2657;DHT22;1338;48.176;11.792;2024-02-26T10:45:28;8.00;1.00
2657;DHT22;1338;48.176;11.792;2024-02-26T10:47:56;7.90;1.00
2657;DHT22;1338;48.176;11.792;2024-02-26T10:50:26;8.30;1.00
2657;DHT22;1338;48.176;11.792;2024-02-26T10:52:55;8.00;1.00
2657;DHT22;1338;48.176;11.792;2024-02-26T10:55:24;7.90;1.00
2657;DHT22;1338;48.176;11.792;2024-02-26T10:57:55;8.60;1.00
2657;DHT22;1338;48.176;11.792;2024-02-26T11:00:25;8.40;1.00
2657;DHT22;1338;48.176;11.792;2024-02-26T11:02:55;8.80;1.00
2657;DHT22;1338;48.176;11.792;2024-02-26T11:05:25;8.90;1.00
2657;DHT22;1338;48.176;11.792;2024-02-26T11:07:55;9.10;1.00
2657;DHT22;1338;48.176;11.792;2024-02-26T11:10:24;8.40;1.00
2657;DHT22;1338;48.176;11.792;2024-02-26T11:12:56;8.60;1.00
2657;DHT22;1338;48.176;11.792;2024-02-26T11:15:25;9.30;1.00
2657;DHT22;1338;48.176;11.792;2024-02-26T11:17:55;9.60;1.00
2657;DHT22;1338;48.176;11.792;2024-02-26T11:20:25;9.20;1.00
2657;DHT22;1338;48.176;11.792;2024-02-26T11:22:56;9.20;1.00
2657;DHT22;1338;48.176;11.792;2024-02-26T11:25:24;9.10;1.00
2657;DHT22;1338;48.176;11.792;2024-02-26T11:27:59;9.10;1.00
2657;DHT22;1338;48.176;11.792;2024-02-26T11:30:31;9.10;1.00
2657;DHT22;1338;48.176;11.792;2024-02-26T11:33:01;10.00;1.00
2657;DHT22;1338;48.176;11.792;2024-02-26T11:35:30;9.50;1.00
2657;DHT22;1338;48.176;11.792;2024-02-26T11:40:28;10.30;1.00
2657;DHT22;1338;48.176;11.792;2024-02-26T11:42:58;10.50;1.00
2657;DHT22;1338;48.176;11.792;2024-02-26T11:45:51;10.60;1.00
2657;DHT22;1338;48.176;11.792;2024-02-26T11:48:21;10.20;1.00
2657;DHT22;1338;48.176;11.792;2024-02-26T11:50:51;11.30;1.00
2657;DHT22;1338;48.176;11.792;2024-02-26T11:53:21;11.10;1.00
2657;DHT22;1338;48.176;11.792;2024-02-26T11:59:03;11.30;1.00
2657;DHT22;1338;48.176;11.792;2024-02-26T12:01:42;11.40;1.00
2657;DHT22;1338;48.176;11.792;2024-02-26T12:04:18;11.70;1.00
2657;DHT22;1338;48.176;11.792;2024-02-26T12:06:50;10.90;1.00
2657;DHT22;1338;48.176;11.792;2024-02-26T12:09:33;11.00;1.00
2657;DHT22;1338;48.176;11.792;2024-02-26T12:12:02;11.00;1.00
2657;DHT22;1338;48.176;11.792;2024-02-26T12:14:34;10.40;1.00
2657;DHT22;1338;48.176;11.792;2024-02-26T12:17:03;10.60;1.00
2657;DHT22;1338;48.176;11.792;2024-02-26T12:19:35;10.00;1.00
2657;DHT22;1338;48.176;11.792;2024-02-26T12:22:08;10.10;1.00
2657;DHT22;1338;48.176;11.792;2024-02-26T12:24:38;9.90;1.00
2657;DHT22;1338;48.176;11.792;2024-02-26T12:27:07;10.10;1.00
2657;DHT22;1338;48.176;11.792;2024-02-26T12:29:37;9.90;1.00
2657;DHT22;1338;48.176;11.792;2024-02-26T12:32:05;10.20;1.00
2657;DHT22;1338;48.176;11.792;2024-02-26T12:34:34;11.20;1.00
2657;DHT22;1338;48.176;11.792;2024-02-26T12:37:03;11.30;1.00
2657;DHT22;1338;48.176;11.792;2024-02-26T12:39:34;11.50;1.00
2657;DHT22;1338;48.176;11.792;2024-02-26T12:42:03;10.90;1.00
2657;DHT22;1338;48.176;11.792;2024-02-26T12:44:31;10.80;1.00
2657;DHT22;1338;48.176;11.792;2024-02-26T12:47:01;10.90;1.00
2657;DHT22;1338;48.176;11.792;2024-02-26T12:49:31;11.10;1.00
2657;DHT22;1338;48.176;11.792;2024-02-26T12:52:00;11.50;1.00
2657;DHT22;1338;48.176;11.792;2024-02-26T12:54:29;11.50;1.00
2657;DHT22;1338;48.176;11.792;2024-02-26T12:56:59;11.50;1.00
2657;DHT22;1338;48.176;11.792;2024-02-26T12:59:29;11.40;1.00
2657;DHT22;1338;48.176;11.792;2024-02-26T13:01:58;11.30;1.00
2657;DHT22;1338;48.176;11.792;2024-02-26T13:04:29;11.60;1.00
2657;DHT22;1338;48.176;11.792;2024-02-26T13:06:58;11.70;1.00
2657;DHT22;1338;48.176;11.792;2024-02-26T13:09:33;11.40;1.00
2657;DHT22;1338;48.176;11.792;2024-02-26T13:12:04;11.60;1.00
2657;DHT22;1338;48.176;11.792;2024-02-26T13:14:33;11.70;1.00
2657;DHT22;1338;48.176;11.792;2024-02-26T13:17:02;11.40;1.00
2657;DHT22;1338;48.176;11.792;2024-02-26T13:19:32;11.40;1.00
2657;DHT22;1338;48.176;11.792;2024-02-26T13:22:05;12.20;1.00
2657;DHT22;1338;48.176;11.792;2024-02-26T13:24:34;12.20;1.00
2657;DHT22;1338;48.176;11.792;2024-02-26T13:27:03;12.40;1.00
2657;DHT22;1338;48.176;11.792;2024-02-26T13:29:33;12.60;1.00
2657;DHT22;1338;48.176;11.792;2024-02-26T13:32:03;12.00;1.00
2657;DHT22;1338;48.176;11.792;2024-02-26T13:34:34;12.30;1.00
2657;DHT22;1338;48.176;11.792;2024-02-26T13:37:05;12.30;1.00
2657;DHT22;1338;48.176;11.792;2024-02-26T13:39:36;12.90;1.00
2657;DHT22;1338;48.176;11.792;2024-02-26T13:42:08;12.60;1.00
2657;DHT22;1338;48.176;11.792;2024-02-26T13:44:38;13.00;1.00
2657;DHT22;1338;48.176;11.792;2024-02-26T13:47:08;13.10;1.00
2657;DHT22;1338;48.176;11.792;2024-02-26T13:49:37;12.60;1.00
2657;DHT22;1338;48.176;11.792;2024-02-26T13:52:06;13.10;1.00
2657;DHT22;1338;48.176;11.792;2024-02-26T13:54:34;13.00;1.00
2657;DHT22;1338;48.176;11.792;2024-02-26T13:57:05;13.50;1.00
2657;DHT22;1338;48.176;11.792;2024-02-26T13:59:33;13.10;1.00
2657;DHT22;1338;48.176;11.792;2024-02-26T14:02:02;12.90;1.00
2657;DHT22;1338;48.176;11.792;2024-02-26T14:04:30;13.60;1.00
2657;DHT22;1338;48.176;11.792;2024-02-26T14:07:00;13.60;1.00
2657;DHT22;1338;48.176;11.792;2024-02-26T14:09:29;13.80;1.00
2657;DHT22;1338;48.176;11.792;2024-02-26T14:12:12;13.40;1.00
2657;DHT22;1338;48.176;11.792;2024-02-26T14:14:40;13.30;1.00
2657;DHT22;1338;48.176;11.792;2024-02-26T14:17:09;12.50;1.00
2657;DHT22;1338;48.176;11.792;2024-02-26T14:19:39;12.10;1.00
2657;DHT22;1338;48.176;11.792;2024-02-26T14:22:12;12.50;1.00
2657;DHT22;1338;48.176;11.792;2024-02-26T14:24:41;12.00;1.00
2657;DHT22;1338;48.176;11.792;2024-02-26T14:27:12;12.20;1.00
2657;DHT22;1338;48.176;11.792;2024-02-26T14:29:43;12.20;1.00
2657;DHT22;1338;48.176;11.792;2024-02-26T14:32:11;12.10;1.00
2657;DHT22;1338;48.176;11.792;2024-02-26T14:34:40;12.20;1.00
2657;DHT22;1338;48.176;11.792;2024-02-26T14:37:09;11.90;1.00
2657;DHT22;1338;48.176;11.792;2024-02-26T14:39:39;11.80;1.00
2657;DHT22;1338;48.176;11.792;2024-02-26T14:42:07;11.90;99.90
2657;DHT22;1338;48.176;11.792;2024-02-26T14:44:36;11.80;99.90
2657;DHT22;1338;48.176;11.792;2024-02-26T14:47:04;11.50;99.90
2657;DHT22;1338;48.176;11.792;2024-02-26T14:49:34;11.50;99.90
2657;DHT22;1338;48.176;11.792;2024-02-26T14:52:02;11.60;99.90
2657;DHT22;1338;48.176;11.792;2024-02-26T14:54:31;11.50;99.90
2657;DHT22;1338;48.176;11.792;2024-02-26T14:57:06;11.50;99.90
2657;DHT22;1338;48.176;11.792;2024-02-26T14:59:34;11.50;99.90
2657;DHT22;1338;48.176;11.792;2024-02-26T15:02:04;11.40;99.90
2657;DHT22;1338;48.176;11.792;2024-02-26T15:04:33;11.40;99.90
2657;DHT22;1338;48.176;11.792;2024-02-26T15:07:03;11.30;99.90
2657;DHT22;1338;48.176;11.792;2024-02-26T15:09:31;11.30;99.90
2657;DHT22;1338;48.176;11.792;2024-02-26T15:12:01;11.20;99.90
2657;DHT22;1338;48.176;11.792;2024-02-26T15:14:33;11.20;99.90
2657;DHT22;1338;48.176;11.792;2024-02-26T15:17:02;11.20;99.90
2657;DHT22;1338;48.176;11.792;2024-02-26T15:19:31;11.20;99.90
2657;DHT22;1338;48.176;11.792;2024-02-26T15:21:59;11.10;99.90
2657;DHT22;1338;48.176;11.792;2024-02-26T15:24:28;11.20;99.90
2657;DHT22;1338;48.176;11.792;2024-02-26T15:26:56;11.10;99.90
2657;DHT22;1338;48.176;11.792;2024-02-26T15:29:26;11.10;99.90
2657;DHT22;1338;48.176;11.792;2024-02-26T15:31:55;11.10;99.90
2657;DHT22;1338;48.176;11.792;2024-02-26T15:34:23;10.90;99.90
2657;DHT22;1338;48.176;11.792;2024-02-26T15:36:52;10.90;99.90
2657;DHT22;1338;48.176;11.792;2024-02-26T15:39:20;10.70;99.90
2657;DHT22;1338;48.176;11.792;2024-02-26T15:41:49;10.80;99.90
2657;DHT22;1338;48.176;11.792;2024-02-26T15:44:18;10.80;99.90
2657;DHT22;1338;48.176;11.792;2024-02-26T15:46:46;10.70;99.90
2657;DHT22;1338;48.176;11.792;2024-02-26T15:49:16;10.70;99.90
2657;DHT22;1338;48.176;11.792;2024-02-26T15:51:44;10.60;1.00
2657;DHT22;1338;48.176;11.792;2024-02-26T15:54:13;10.60;1.00
2657;DHT22;1338;48.176;11.792;2024-02-26T15:56:41;10.40;1.00
2657;DHT22;1338;48.176;11.792;2024-02-26T15:59:10;10.50;1.00
2657;DHT22;1338;48.176;11.792;2024-02-26T16:01:39;10.30;1.00
2657;DHT22;1338;48.176;11.792;2024-02-26T16:04:08;10.40;99.90
2657;DHT22;1338;48.176;11.792;2024-02-26T16:06:41;10.40;99.90
2657;DHT22;1338;48.176;11.792;2024-02-26T16:09:11;10.40;99.90
2657;DHT22;1338;48.176;11.792;2024-02-26T16:11:40;10.30;99.90
2657;DHT22;1338;48.176;11.792;2024-02-26T16:14:12;10.30;99.90
2657;DHT22;1338;48.176;11.792;2024-02-26T16:16:51;10.20;99.90
2657;DHT22;1338;48.176;11.792;2024-02-26T16:19:20;10.00;99.90
2657;DHT22;1338;48.176;11.792;2024-02-26T16:21:52;10.20;99.90
2657;DHT22;1338;48.176;11.792;2024-02-26T16:24:20;10.10;99.90